sensor_id;sensor_type;location;lat;lon;timestamp;pressure;altitude;pressure_sealevel;temperature;humidity
19789;BME280;10054;59.332;18.244;2023-01-19T00:00:16;99201.20;;;-1.41;100.00
19789;BME280;10054;59.332;18.244;2023-01-19T00:02:44;99205.25;;;-1.45;100.00
19789;BME280;10054;59.332;18.244;2023-01-19T00:05:13;99209.58;;;-1.46;100.00
19789;BME280;10054;59.332;18.244;2023-01-19T00:07:42;99203.91;;;-1.44;100.00
19789;BME280;10054;59.332;18.244;2023-01-19T00:10:11;99201.59;;;-1.40;100.00
19789;BME280;10054;59.332;18.244;2023-01-19T00:12:39;99202.27;;;-1.35;100.00
19789;BME280;10054;59.332;18.244;2023-01-19T00:15:09;99201.27;;;-1.30;100.00
19789;BME280;10054;59.332;18.244;2023-01-19T00:17:37;99197.77;;;-1.29;100.00
19789;BME280;10054;59.332;18.244;2023-01-19T00:20:09;99198.50;;;-1.26;100.00
19789;BME280;10054;59.332;18.244;2023-01-19T00:22:38;99196.25;;;-1.23;100.00
19789;BME280;10054;59.332;18.244;2023-01-19T00:25:07;99195.67;;;-1.08;100.00
19789;BME280;10054;59.332;18.244;2023-01-19T00:27:36;99195.09;;;-0.93;100.00
19789;BME280;10054;59.332;18.244;2023-01-19T00:30:05;99194.70;;;-0.94;100.00
19789;BME280;10054;59.332;18.244;2023-01-19T00:32:34;99191.95;;;-1.01;100.00
19789;BME280;10054;59.332;18.244;2023-01-19T00:35:03;99190.95;;;-1.09;100.00
19789;BME280;10054;59.332;18.244;2023-01-19T00:37:31;99195.40;;;-1.12;100.00
19789;BME280;10054;59.332;18.244;2023-01-19T00:40:00;99190.80;;;-1.16;100.00
19789;BME280;10054;59.332;18.244;2023-01-19T00:42:29;99190.84;;;-1.17;100.00
19789;BME280;10054;59.332;18.244;2023-01-19T00:45:16;99185.22;;;-1.17;100.00
19789;BME280;10054;59.332;18.244;2023-01-19T00:47:49;99192.09;;;-1.16;100.00
19789;BME280;10054;59.332;18.244;2023-01-19T00:50:20;99189.05;;;-1.15;100.00
19789;BME280;10054;59.332;18.244;2023-01-19T00:52:48;99179.94;;;-1.14;100.00
19789;BME280;10054;59.332;18.244;2023-01-19T00:55:17;99191.13;;;-1.13;100.00
19789;BME280;10054;59.332;18.244;2023-01-19T00:57:46;99187.70;;;-1.14;100.00
19789;BME280;10054;59.332;18.244;2023-01-19T01:00:17;99188.94;;;-1.12;100.00
19789;BME280;10054;59.332;18.244;2023-01-19T01:02:50;99189.77;;;-1.12;100.00
19789;BME280;10054;59.332;18.244;2023-01-19T01:05:20;99192.81;;;-1.12;100.00
19789;BME280;10054;59.332;18.244;2023-01-19T01:07:49;99196.19;;;-1.10;100.00
19789;BME280;10054;59.332;18.244;2023-01-19T01:10:20;99194.50;;;-1.11;100.00
19789;BME280;10054;59.332;18.244;2023-01-19T01:12:49;99193.59;;;-1.10;100.00
19789;BME280;10054;59.332;18.244;2023-01-19T01:15:18;99196.97;;;-1.08;100.00
19789;BME280;10054;59.332;18.244;2023-01-19T01:17:48;99206.42;;;-1.07;100.00
19789;BME280;10054;59.332;18.244;2023-01-19T01:20:26;99204.67;;;-1.07;100.00
19789;BME280;10054;59.332;18.244;2023-01-19T01:22:57;99200.86;;;-1.08;100.00
19789;BME280;10054;59.332;18.244;2023-01-19T01:25:26;99203.44;;;-1.08;100.00
19789;BME280;10054;59.332;18.244;2023-01-19T01:27:56;99202.94;;;-1.06;100.00
19789;BME280;10054;59.332;18.244;2023-01-19T01:30:25;99205.80;;;-1.02;100.00
19789;BME280;10054;59.332;18.244;2023-01-19T01:32:56;99200.61;;;-0.90;100.00
19789;BME280;10054;59.332;18.244;2023-01-19T01:35:24;99196.64;;;-0.77;100.00
19789;BME280;10054;59.332;18.244;2023-01-19T01:37:56;99193.14;;;-0.76;100.00
19789;BME280;10054;59.332;18.244;2023-01-19T01:40:24;99195.86;;;-0.79;100.00
19789;BME280;10054;59.332;18.244;2023-01-19T01:42:52;99196.03;;;-0.84;100.00
19789;BME280;10054;59.332;18.244;2023-01-19T01:45:36;99200.03;;;-0.87;100.00
19789;BME280;10054;59.332;18.244;2023-01-19T01:48:08;99199.25;;;-0.89;100.00
19789;BME280;10054;59.332;18.244;2023-01-19T01:50:37;99191.09;;;-0.90;100.00
19789;BME280;10054;59.332;18.244;2023-01-19T01:53:10;99191.09;;;-0.90;100.00
19789;BME280;10054;59.332;18.244;2023-01-19T01:55:42;99185.92;;;-0.90;100.00
19789;BME280;10054;59.332;18.244;2023-01-19T01:58:11;99188.84;;;-0.87;100.00
19789;BME280;10054;59.332;18.244;2023-01-19T02:00:41;99194.34;;;-0.85;100.00
19789;BME280;10054;59.332;18.244;2023-01-19T02:03:28;99197.66;;;-0.81;100.00
19789;BME280;10054;59.332;18.244;2023-01-19T02:06:00;99194.17;;;-0.80;100.00
19789;BME280;10054;59.332;18.244;2023-01-19T02:08:36;99197.99;;;-0.79;100.00
19789;BME280;10054;59.332;18.244;2023-01-19T02:11:22;99198.38;;;-0.78;100.00
19789;BME280;10054;59.332;18.244;2023-01-19T02:14:09;99200.02;;;-0.75;100.00
19789;BME280;10054;59.332;18.244;2023-01-19T02:16:37;99191.25;;;-0.73;100.00
19789;BME280;10054;59.332;18.244;2023-01-19T02:19:07;99190.73;;;-0.71;100.00
19789;BME280;10054;59.332;18.244;2023-01-19T02:21:58;99189.83;;;-0.70;100.00
19789;BME280;10054;59.332;18.244;2023-01-19T02:24:26;99180.26;;;-0.68;100.00
19789;BME280;10054;59.332;18.244;2023-01-19T02:26:56;99184.98;;;-0.67;100.00
19789;BME280;10054;59.332;18.244;2023-01-19T02:29:26;99186.28;;;-0.67;100.00
19789;BME280;10054;59.332;18.244;2023-01-19T02:31:55;99188.42;;;-0.67;100.00
19789;BME280;10054;59.332;18.244;2023-01-19T02:34:26;99195.22;;;-0.64;100.00
19789;BME280;10054;59.332;18.244;2023-01-19T02:37:05;99192.33;;;-0.56;100.00
19789;BME280;10054;59.332;18.244;2023-01-19T02:39:36;99190.35;;;-0.40;100.00
19789;BME280;10054;59.332;18.244;2023-01-19T02:42:29;99192.69;;;-0.34;100.00
19789;BME280;10054;59.332;18.244;2023-01-19T02:44:58;99196.70;;;-0.37;100.00
19789;BME280;10054;59.332;18.244;2023-01-19T02:47:26;99204.00;;;-0.46;100.00
19789;BME280;10054;59.332;18.244;2023-01-19T02:50:00;99204.70;;;-0.53;100.00
19789;BME280;10054;59.332;18.244;2023-01-19T02:52:29;99206.30;;;-0.60;100.00
19789;BME280;10054;59.332;18.244;2023-01-19T03:00:24;99211.45;;;-0.71;100.00
19789;BME280;10054;59.332;18.244;2023-01-19T03:02:56;99217.98;;;-0.72;100.00
19789;BME280;10054;59.332;18.244;2023-01-19T03:11:03;99222.47;;;-0.76;100.00
19789;BME280;10054;59.332;18.244;2023-01-19T03:18:41;99224.06;;;-0.73;100.00
19789;BME280;10054;59.332;18.244;2023-01-19T03:21:11;99230.48;;;-0.72;100.00
19789;BME280;10054;59.332;18.244;2023-01-19T03:23:42;99233.06;;;-0.72;100.00
19789;BME280;10054;59.332;18.244;2023-01-19T03:26:15;99231.32;;;-0.71;100.00
19789;BME280;10054;59.332;18.244;2023-01-19T03:28:46;99222.98;;;-0.68;100.00
19789;BME280;10054;59.332;18.244;2023-01-19T03:31:21;99229.77;;;-0.53;100.00
19789;BME280;10054;59.332;18.244;2023-01-19T03:34:04;99233.07;;;-0.50;100.00
19789;BME280;10054;59.332;18.244;2023-01-19T03:36:36;99231.51;;;-0.54;100.00
19789;BME280;10054;59.332;18.244;2023-01-19T03:39:06;99230.52;;;-0.61;100.00
19789;BME280;10054;59.332;18.244;2023-01-19T03:41:37;99239.75;;;-0.66;100.00
19789;BME280;10054;59.332;18.244;2023-01-19T03:44:07;99242.02;;;-0.69;100.00
19789;BME280;10054;59.332;18.244;2023-01-19T03:46:36;99247.31;;;-0.72;100.00
19789;BME280;10054;59.332;18.244;2023-01-19T03:49:06;99246.08;;;-0.73;100.00
19789;BME280;10054;59.332;18.244;2023-01-19T03:51:36;99258.57;;;-0.73;100.00
19789;BME280;10054;59.332;18.244;2023-01-19T03:54:06;99262.45;;;-0.73;100.00
19789;BME280;10054;59.332;18.244;2023-01-19T03:56:35;99257.81;;;-0.75;100.00
19789;BME280;10054;59.332;18.244;2023-01-19T03:59:04;99262.45;;;-0.73;100.00
19789;BME280;10054;59.332;18.244;2023-01-19T04:01:33;99261.95;;;-0.71;100.00
19789;BME280;10054;59.332;18.244;2023-01-19T04:04:02;99257.22;;;-0.71;100.00
19789;BME280;10054;59.332;18.244;2023-01-19T04:06:30;99258.84;;;-0.69;100.00
19789;BME280;10054;59.332;18.244;2023-01-19T04:08:59;99263.52;;;-0.67;100.00
19789;BME280;10054;59.332;18.244;2023-01-19T04:11:28;99259.57;;;-0.65;100.00
19789;BME280;10054;59.332;18.244;2023-01-19T04:13:56;99254.39;;;-0.65;100.00
19789;BME280;10054;59.332;18.244;2023-01-19T04:16:25;99259.51;;;-0.63;100.00
19789;BME280;10054;59.332;18.244;2023-01-19T04:18:54;99261.98;;;-0.60;100.00
19789;BME280;10054;59.332;18.244;2023-01-19T04:21:22;99254.34;;;-0.42;100.00
19789;BME280;10054;59.332;18.244;2023-01-19T04:23:51;99259.16;;;-0.32;100.00
19789;BME280;10054;59.332;18.244;2023-01-19T04:26:20;99256.23;;;-0.35;100.00
19789;BME280;10054;59.332;18.244;2023-01-19T04:28:48;99257.89;;;-0.44;100.00
19789;BME280;10054;59.332;18.244;2023-01-19T04:31:17;99262.86;;;-0.50;100.00
19789;BME280;10054;59.332;18.244;2023-01-19T04:33:45;99264.00;;;-0.57;100.00
19789;BME280;10054;59.332;18.244;2023-01-19T04:36:14;99268.91;;;-0.61;100.00
19789;BME280;10054;59.332;18.244;2023-01-19T04:38:43;99275.83;;;-0.61;100.00
19789;BME280;10054;59.332;18.244;2023-01-19T04:41:13;99275.95;;;-0.64;100.00
19789;BME280;10054;59.332;18.244;2023-01-19T04:43:41;99276.46;;;-0.67;100.00
19789;BME280;10054;59.332;18.244;2023-01-19T04:46:10;99276.02;;;-0.66;100.00
19789;BME280;10054;59.332;18.244;2023-01-19T04:48:39;99277.76;;;-0.67;100.00
19789;BME280;10054;59.332;18.244;2023-01-19T04:51:07;99276.06;;;-0.68;100.00
19789;BME280;10054;59.332;18.244;2023-01-19T04:53:36;99277.87;;;-0.70;100.00
19789;BME280;10054;59.332;18.244;2023-01-19T04:56:05;99277.54;;;-0.72;100.00
19789;BME280;10054;59.332;18.244;2023-01-19T04:58:33;99278.05;;;-0.74;100.00
19789;BME280;10054;59.332;18.244;2023-01-19T05:01:08;99284.16;;;-0.75;100.00
19789;BME280;10054;59.332;18.244;2023-01-19T05:03:37;99282.47;;;-0.76;100.00
19789;BME280;10054;59.332;18.244;2023-01-19T05:06:06;99288.50;;;-0.76;100.00
19789;BME280;10054;59.332;18.244;2023-01-19T05:08:35;99287.65;;;-0.76;100.00
19789;BME280;10054;59.332;18.244;2023-01-19T05:11:04;99289.98;;;-0.70;100.00
19789;BME280;10054;59.332;18.244;2023-01-19T05:13:33;99288.73;;;-0.60;100.00
19789;BME280;10054;59.332;18.244;2023-01-19T05:16:02;99295.14;;;-0.58;100.00
19789;BME280;10054;59.332;18.244;2023-01-19T05:18:30;99297.63;;;-0.67;100.00
19789;BME280;10054;59.332;18.244;2023-01-19T05:21:04;99297.22;;;-0.78;100.00
19789;BME280;10054;59.332;18.244;2023-01-19T05:23:33;99289.29;;;-0.85;100.00
19789;BME280;10054;59.332;18.244;2023-01-19T05:26:02;99298.46;;;-0.88;100.00
19789;BME280;10054;59.332;18.244;2023-01-19T05:28:32;99301.16;;;-0.91;100.00
19789;BME280;10054;59.332;18.244;2023-01-19T05:31:01;99302.46;;;-0.91;100.00
19789;BME280;10054;59.332;18.244;2023-01-19T05:33:29;99302.91;;;-0.92;100.00
19789;BME280;10054;59.332;18.244;2023-01-19T05:35:58;99302.52;;;-0.93;100.00
19789;BME280;10054;59.332;18.244;2023-01-19T05:38:27;99303.08;;;-0.96;100.00
19789;BME280;10054;59.332;18.244;2023-01-19T05:40:57;99309.09;;;-0.96;100.00
19789;BME280;10054;59.332;18.244;2023-01-19T05:43:26;99305.72;;;-0.98;100.00
19789;BME280;10054;59.332;18.244;2023-01-19T05:45:54;99307.08;;;-1.00;100.00
19789;BME280;10054;59.332;18.244;2023-01-19T05:48:23;99310.50;;;-0.99;100.00
19789;BME280;10054;59.332;18.244;2023-01-19T05:50:55;99305.39;;;-1.01;100.00
19789;BME280;10054;59.332;18.244;2023-01-19T05:53:23;99311.80;;;-0.99;100.00
19789;BME280;10054;59.332;18.244;2023-01-19T05:55:52;99311.41;;;-1.00;100.00
19789;BME280;10054;59.332;18.244;2023-01-19T05:58:20;99313.55;;;-1.00;100.00
19789;BME280;10054;59.332;18.244;2023-01-19T06:00:49;99317.88;;;-1.00;100.00
19789;BME280;10054;59.332;18.244;2023-01-19T06:03:17;99316.70;;;-0.91;100.00
19789;BME280;10054;59.332;18.244;2023-01-19T06:05:46;99318.78;;;-0.78;100.00
19789;BME280;10054;59.332;18.244;2023-01-19T06:08:14;99323.17;;;-0.80;100.00
19789;BME280;10054;59.332;18.244;2023-01-19T06:10:43;99325.59;;;-0.87;100.00
19789;BME280;10054;59.332;18.244;2023-01-19T06:13:12;99323.78;;;-0.96;100.00
19789;BME280;10054;59.332;18.244;2023-01-19T06:15:40;99331.88;;;-1.06;100.00
19789;BME280;10054;59.332;18.244;2023-01-19T06:18:10;99327.66;;;-1.08;100.00
19789;BME280;10054;59.332;18.244;2023-01-19T06:20:39;99331.20;;;-1.11;100.00
19789;BME280;10054;59.332;18.244;2023-01-19T06:23:07;99335.19;;;-1.14;100.00
19789;BME280;10054;59.332;18.244;2023-01-19T06:25:37;99342.61;;;-1.16;100.00
19789;BME280;10054;59.332;18.244;2023-01-19T06:28:06;99347.00;;;-1.18;100.00
19789;BME280;10054;59.332;18.244;2023-01-19T06:30:34;99353.52;;;-1.20;100.00
19789;BME280;10054;59.332;18.244;2023-01-19T06:33:03;99363.98;;;-1.23;100.00
19789;BME280;10054;59.332;18.244;2023-01-19T06:35:31;99369.25;;;-1.26;100.00
19789;BME280;10054;59.332;18.244;2023-01-19T06:38:00;99369.76;;;-1.28;100.00
19789;BME280;10054;59.332;18.244;2023-01-19T06:40:28;99366.77;;;-1.29;100.00
19789;BME280;10054;59.332;18.244;2023-01-19T06:42:58;99367.72;;;-1.32;100.00
19789;BME280;10054;59.332;18.244;2023-01-19T06:45:27;99371.60;;;-1.32;100.00
19789;BME280;10054;59.332;18.244;2023-01-19T06:47:55;99372.89;;;-1.32;100.00
19789;BME280;10054;59.332;18.244;2023-01-19T06:50:24;99378.13;;;-1.33;100.00
19789;BME280;10054;59.332;18.244;2023-01-19T06:52:53;99377.33;;;-1.35;100.00
19789;BME280;10054;59.332;18.244;2023-01-19T06:55:22;99386.88;;;-1.37;100.00
19789;BME280;10054;59.332;18.244;2023-01-19T06:57:58;99388.73;;;-1.41;100.00
19789;BME280;10054;59.332;18.244;2023-01-19T07:00:28;99386.59;;;-1.41;100.00
19789;BME280;10054;59.332;18.244;2023-01-19T07:02:56;99390.52;;;-1.43;100.00
19789;BME280;10054;59.332;18.244;2023-01-19T07:05:25;99391.81;;;-1.43;100.00
19789;BME280;10054;59.332;18.244;2023-01-19T07:07:55;99397.38;;;-1.42;100.00
19789;BME280;10054;59.332;18.244;2023-01-19T07:10:24;99403.11;;;-1.45;100.00
19789;BME280;10054;59.332;18.244;2023-01-19T07:12:55;99404.00;;;-1.46;100.00
19789;BME280;10054;59.332;18.244;2023-01-19T07:15:24;99409.17;;;-1.46;100.00
19789;BME280;10054;59.332;18.244;2023-01-19T07:17:56;99417.83;;;-1.47;100.00
19789;BME280;10054;59.332;18.244;2023-01-19T07:20:22;99416.88;;;-1.45;100.00
19789;BME280;10054;59.332;18.244;2023-01-19T07:22:57;99424.14;;;-1.43;100.00
19789;BME280;10054;59.332;18.244;2023-01-19T07:25:26;99422.25;;;-1.38;100.00
19789;BME280;10054;59.332;18.244;2023-01-19T07:27:58;99422.39;;;-1.29;100.00
19789;BME280;10054;59.332;18.244;2023-01-19T07:30:27;99431.54;;;-1.19;100.00
19789;BME280;10054;59.332;18.244;2023-01-19T07:32:56;99430.98;;;-1.15;100.00
19789;BME280;10054;59.332;18.244;2023-01-19T07:35:25;99437.91;;;-1.16;100.00
19789;BME280;10054;59.332;18.244;2023-01-19T07:37:55;99437.61;;;-1.20;100.00
19789;BME280;10054;59.332;18.244;2023-01-19T07:40:24;99448.91;;;-1.22;100.00
19789;BME280;10054;59.332;18.244;2023-01-19T07:42:53;99449.41;;;-1.24;100.00
19789;BME280;10054;59.332;18.244;2023-01-19T07:45:21;99452.44;;;-1.25;100.00
19789;BME280;10054;59.332;18.244;2023-01-19T07:47:50;99457.97;;;-1.22;100.00
19789;BME280;10054;59.332;18.244;2023-01-19T07:50:19;99457.12;;;-1.23;100.00
19789;BME280;10054;59.332;18.244;2023-01-19T07:52:49;99462.24;;;-1.21;100.00
19789;BME280;10054;59.332;18.244;2023-01-19T07:55:20;99459.20;;;-1.21;100.00
19789;BME280;10054;59.332;18.244;2023-01-19T07:57:50;99466.87;;;-1.18;100.00
19789;BME280;10054;59.332;18.244;2023-01-19T08:00:20;99465.08;;;-1.16;100.00
19789;BME280;10054;59.332;18.244;2023-01-19T08:02:52;99478.81;;;-1.14;100.00
19789;BME280;10054;59.332;18.244;2023-01-19T08:05:20;99481.34;;;-1.12;100.00
19789;BME280;10054;59.332;18.244;2023-01-19T08:07:49;99478.31;;;-1.12;100.00
19789;BME280;10054;59.332;18.244;2023-01-19T08:10:19;99481.74;;;-1.11;100.00
19789;BME280;10054;59.332;18.244;2023-01-19T08:12:49;99484.38;;;-1.13;100.00
19789;BME280;10054;59.332;18.244;2023-01-19T08:15:18;99488.66;;;-1.12;100.00
19789;BME280;10054;59.332;18.244;2023-01-19T08:17:57;99489.06;;;-1.11;100.00
19789;BME280;10054;59.332;18.244;2023-01-19T08:20:27;99490.30;;;-1.09;100.00
19789;BME280;10054;59.332;18.244;2023-01-19T08:22:56;99497.52;;;-1.06;100.00
19789;BME280;10054;59.332;18.244;2023-01-19T08:25:37;99496.63;;;-1.05;100.00
19789;BME280;10054;59.332;18.244;2023-01-19T08:28:08;99502.64;;;-1.04;100.00
19789;BME280;10054;59.332;18.244;2023-01-19T08:30:38;99510.70;;;-1.00;100.00
19789;BME280;10054;59.332;18.244;2023-01-19T08:33:07;99507.62;;;-0.98;100.00
19789;BME280;10054;59.332;18.244;2023-01-19T08:35:41;99512.64;;;-0.93;100.00
19789;BME280;10054;59.332;18.244;2023-01-19T08:38:10;99517.22;;;-0.88;100.00
19789;BME280;10054;59.332;18.244;2023-01-19T08:40:40;99515.66;;;-0.81;100.00
19789;BME280;10054;59.332;18.244;2023-01-19T08:43:14;99520.29;;;-0.66;100.00
19789;BME280;10054;59.332;18.244;2023-01-19T08:45:48;99516.25;;;-0.61;100.00
19789;BME280;10054;59.332;18.244;2023-01-19T08:48:21;99524.47;;;-0.61;100.00
19789;BME280;10054;59.332;18.244;2023-01-19T08:50:52;99518.99;;;-0.66;100.00
19789;BME280;10054;59.332;18.244;2023-01-19T08:53:21;99525.02;;;-0.65;100.00
19789;BME280;10054;59.332;18.244;2023-01-19T08:55:56;99522.83;;;-0.64;100.00
19789;BME280;10054;59.332;18.244;2023-01-19T08:58:27;99527.95;;;-0.62;100.00
19789;BME280;10054;59.332;18.244;2023-01-19T09:00:58;99533.03;;;-0.59;100.00
19789;BME280;10054;59.332;18.244;2023-01-19T09:03:25;99537.70;;;-0.57;100.00
19789;BME280;10054;59.332;18.244;2023-01-19T09:05:54;99543.68;;;-0.55;100.00
19789;BME280;10054;59.332;18.244;2023-01-19T09:08:22;99540.98;;;-0.52;100.00
19789;BME280;10054;59.332;18.244;2023-01-19T09:10:51;99544.77;;;-0.49;100.00
19789;BME280;10054;59.332;18.244;2023-01-19T09:13:20;99551.08;;;-0.45;100.00
19789;BME280;10054;59.332;18.244;2023-01-19T09:15:48;99553.91;;;-0.39;100.00
19789;BME280;10054;59.332;18.244;2023-01-19T09:18:20;99553.80;;;-0.36;100.00
19789;BME280;10054;59.332;18.244;2023-01-19T09:20:50;99554.48;;;-0.31;100.00
19789;BME280;10054;59.332;18.244;2023-01-19T09:23:19;99556.47;;;-0.26;100.00
19789;BME280;10054;59.332;18.244;2023-01-19T09:25:54;99560.25;;;-0.23;100.00
19789;BME280;10054;59.332;18.244;2023-01-19T09:28:19;99560.14;;;-0.20;100.00
19789;BME280;10054;59.332;18.244;2023-01-19T09:30:47;99565.66;;;-0.17;100.00
19789;BME280;10054;59.332;18.244;2023-01-19T09:33:19;99563.81;;;-0.14;100.00
19789;BME280;10054;59.332;18.244;2023-01-19T09:35:48;99564.99;;;-0.11;100.00
19789;BME280;10054;59.332;18.244;2023-01-19T09:38:18;99572.77;;;-0.11;100.00
19789;BME280;10054;59.332;18.244;2023-01-19T09:40:53;99573.11;;;-0.08;100.00
19789;BME280;10054;59.332;18.244;2023-01-19T09:43:29;99583.03;;;-0.08;100.00
19789;BME280;10054;59.332;18.244;2023-01-19T09:45:57;99581.17;;;-0.04;100.00
19789;BME280;10054;59.332;18.244;2023-01-19T09:51:24;99587.80;;;0.03;100.00
19789;BME280;10054;59.332;18.244;2023-01-19T09:56:46;99593.22;;;0.09;100.00
19789;BME280;10054;59.332;18.244;2023-01-19T09:59:23;99594.45;;;0.10;100.00
19789;BME280;10054;59.332;18.244;2023-01-19T10:02:41;99592.66;;;0.12;100.00
19789;BME280;10054;59.332;18.244;2023-01-19T10:04:30;99600.72;;;0.16;100.00
19789;BME280;10054;59.332;18.244;2023-01-19T10:18:28;99622.38;;;0.27;100.00
19789;BME280;10054;59.332;18.244;2023-01-19T10:21:10;99623.67;;;0.27;100.00
19789;BME280;10054;59.332;18.244;2023-01-19T10:26:26;99628.13;;;0.35;100.00
19789;BME280;10054;59.332;18.244;2023-01-19T10:29:03;99636.14;;;0.41;100.00
19789;BME280;10054;59.332;18.244;2023-01-19T10:31:33;99633.59;;;0.39;100.00
19789;BME280;10054;59.332;18.244;2023-01-19T10:34:03;99640.59;;;0.37;100.00
19789;BME280;10054;59.332;18.244;2023-01-19T10:36:36;99640.70;;;0.34;100.00
19789;BME280;10054;59.332;18.244;2023-01-19T10:39:06;99641.66;;;0.31;100.00
19789;BME280;10054;59.332;18.244;2023-01-19T10:41:44;99643.41;;;0.31;100.00
19789;BME280;10054;59.332;18.244;2023-01-19T10:44:11;99648.20;;;0.30;100.00
19789;BME280;10054;59.332;18.244;2023-01-19T10:46:47;99643.47;;;0.29;100.00
19789;BME280;10054;59.332;18.244;2023-01-19T10:52:07;99650.40;;;0.29;100.00
19789;BME280;10054;59.332;18.244;2023-01-19T10:54:36;99654.29;;;0.29;100.00
19789;BME280;10054;59.332;18.244;2023-01-19T10:57:07;99662.12;;;0.27;100.00
19789;BME280;10054;59.332;18.244;2023-01-19T11:07:32;99667.60;;;0.31;100.00
19789;BME280;10054;59.332;18.244;2023-01-19T11:13:04;99668.95;;;0.30;100.00
19789;BME280;10054;59.332;18.244;2023-01-19T11:15:50;99665.12;;;0.28;100.00
19789;BME280;10054;59.332;18.244;2023-01-19T11:18:29;99671.66;;;0.27;100.00
19789;BME280;10054;59.332;18.244;2023-01-19T11:21:06;99664.38;;;0.25;100.00
19789;BME280;10054;59.332;18.244;2023-01-19T11:23:35;99674.30;;;0.25;100.00
19789;BME280;10054;59.332;18.244;2023-01-19T11:26:14;99678.70;;;0.23;100.00
19789;BME280;10054;59.332;18.244;2023-01-19T11:28:48;99677.01;;;0.22;100.00
19789;BME280;10054;59.332;18.244;2023-01-19T11:31:28;99676.95;;;0.24;100.00
19789;BME280;10054;59.332;18.244;2023-01-19T11:33:51;99681.98;;;0.40;100.00
19789;BME280;10054;59.332;18.244;2023-01-19T11:39:00;99683.86;;;0.48;100.00
19789;BME280;10054;59.332;18.244;2023-01-19T11:41:32;99688.87;;;0.41;100.00
19789;BME280;10054;59.332;18.244;2023-01-19T11:44:26;99684.30;;;0.36;100.00
19789;BME280;10054;59.332;18.244;2023-01-19T11:47:01;99692.19;;;0.33;100.00
19789;BME280;10054;59.332;18.244;2023-01-19T11:49:39;99690.95;;;0.31;100.00
19789;BME280;10054;59.332;18.244;2023-01-19T11:52:15;99694.95;;;0.28;100.00
19789;BME280;10054;59.332;18.244;2023-01-19T11:54:48;99698.84;;;0.28;100.00
19789;BME280;10054;59.332;18.244;2023-01-19T11:57:16;99702.73;;;0.28;100.00
19789;BME280;10054;59.332;18.244;2023-01-19T11:59:46;99704.36;;;0.31;100.00
19789;BME280;10054;59.332;18.244;2023-01-19T12:02:27;99707.36;;;0.32;100.00
19789;BME280;10054;59.332;18.244;2023-01-19T12:04:59;99712.49;;;0.33;100.00
19789;BME280;10054;59.332;18.244;2023-01-19T12:07:29;99717.23;;;0.34;100.00
19789;BME280;10054;59.332;18.244;2023-01-19T12:10:35;99721.86;;;0.38;100.00
19789;BME280;10054;59.332;18.244;2023-01-19T12:12:37;99727.79;;;0.41;100.00
19789;BME280;10054;59.332;18.244;2023-01-19T12:15:24;99731.12;;;0.45;100.00
19789;BME280;10054;59.332;18.244;2023-01-19T12:17:51;99733.21;;;0.47;100.00
19789;BME280;10054;59.332;18.244;2023-01-19T12:25:58;99741.91;;;0.57;100.00
19789;BME280;10054;59.332;18.244;2023-01-19T12:28:26;99742.31;;;0.58;100.00
19789;BME280;10054;59.332;18.244;2023-01-19T12:30:54;99749.59;;;0.60;100.00
19789;BME280;10054;59.332;18.244;2023-01-19T12:33:37;99751.79;;;0.59;100.00
19789;BME280;10054;59.332;18.244;2023-01-19T12:41:41;99746.02;;;0.51;100.00
19789;BME280;10054;59.332;18.244;2023-01-19T12:46:53;99751.42;;;0.45;100.00
19789;BME280;10054;59.332;18.244;2023-01-19T13:00:31;99764.74;;;0.48;100.00
19789;BME280;10054;59.332;18.244;2023-01-19T13:02:42;99765.48;;;0.51;100.00
19789;BME280;10054;59.332;18.244;2023-01-19T13:13:36;99776.39;;;0.36;100.00
19789;BME280;10054;59.332;18.244;2023-01-19T13:18:59;99783.03;;;0.31;100.00
19789;BME280;10054;59.332;18.244;2023-01-19T13:21:34;99794.26;;;0.32;100.00
19789;BME280;10054;59.332;18.244;2023-01-19T13:24:07;99797.75;;;0.31;100.00
19789;BME280;10054;59.332;18.244;2023-01-19T13:26:39;99800.84;;;0.29;100.00
19789;BME280;10054;59.332;18.244;2023-01-19T13:29:17;99809.13;;;0.27;100.00
19789;BME280;10054;59.332;18.244;2023-01-19T13:31:46;99810.87;;;0.26;100.00
19789;BME280;10054;59.332;18.244;2023-01-19T13:34:21;99818.31;;;0.24;100.00
19789;BME280;10054;59.332;18.244;2023-01-19T13:36:52;99817.06;;;0.22;100.00
19789;BME280;10054;59.332;18.244;2023-01-19T13:42:08;99824.09;;;0.19;100.00
19789;BME280;10054;59.332;18.244;2023-01-19T13:44:42;99828.09;;;0.16;100.00
19789;BME280;10054;59.332;18.244;2023-01-19T13:47:16;99833.77;;;0.14;100.00
19789;BME280;10054;59.332;18.244;2023-01-19T13:49:45;99829.09;;;0.12;100.00
19789;BME280;10054;59.332;18.244;2023-01-19T13:52:29;99833.87;;;0.11;100.00
19789;BME280;10054;59.332;18.244;2023-01-19T13:54:59;99833.13;;;0.07;100.00
19789;BME280;10054;59.332;18.244;2023-01-19T13:57:31;99834.47;;;0.06;100.00
19789;BME280;10054;59.332;18.244;2023-01-19T14:05:27;99845.27;;;-0.07;100.00
19789;BME280;10054;59.332;18.244;2023-01-19T14:13:31;99853.70;;;0.00;100.00
19789;BME280;10054;59.332;18.244;2023-01-19T14:15:59;99856.83;;;-0.04;100.00
19789;BME280;10054;59.332;18.244;2023-01-19T14:18:30;99863.16;;;-0.12;100.00
19789;BME280;10054;59.332;18.244;2023-01-19T14:21:07;99864.28;;;-0.21;100.00
19789;BME280;10054;59.332;18.244;2023-01-19T14:23:46;99865.01;;;-0.30;100.00
19789;BME280;10054;59.332;18.244;2023-01-19T14:29:22;99868.86;;;-0.44;100.00
19789;BME280;10054;59.332;18.244;2023-01-19T14:32:14;99875.96;;;-0.50;100.00
19789;BME280;10054;59.332;18.244;2023-01-19T14:34:49;99883.87;;;-0.55;100.00
19789;BME280;10054;59.332;18.244;2023-01-19T14:37:27;99886.59;;;-0.59;100.00
19789;BME280;10054;59.332;18.244;2023-01-19T14:40:20;99887.57;;;-0.63;100.00
19789;BME280;10054;59.332;18.244;2023-01-19T14:42:34;99880.38;;;-0.69;100.00
19789;BME280;10054;59.332;18.244;2023-01-19T14:47:56;99890.98;;;-0.76;100.00
19789;BME280;10054;59.332;18.244;2023-01-19T14:50:35;99892.81;;;-0.80;100.00